sensor_id;sensor_type;location;lat;lon;timestamp;P1;durP1;ratioP1;P2;durP2;ratioP2
30337;SDS011;17143;51.888;5.408;2023-07-13T00:13:14;2.93;;;0.60;;
30337;SDS011;17143;51.888;5.408;2023-07-13T00:28:16;1.60;;;0.97;;
30337;SDS011;17143;51.888;5.408;2023-07-13T00:43:20;2.70;;;1.40;;
30337;SDS011;17143;51.888;5.408;2023-07-13T00:58:23;1.70;;;1.03;;
30337;SDS011;17143;51.888;5.408;2023-07-13T01:13:26;1.67;;;0.77;;
30337;SDS011;17143;51.888;5.408;2023-07-13T01:28:28;5.20;;;1.47;;
30337;SDS011;17143;51.888;5.408;2023-07-13T01:43:31;3.03;;;1.00;;
30337;SDS011;17143;51.888;5.408;2023-07-13T01:58:33;4.90;;;1.20;;
30337;SDS011;17143;51.888;5.408;2023-07-13T02:13:35;2.07;;;1.00;;
30337;SDS011;17143;51.888;5.408;2023-07-13T02:28:37;2.13;;;1.30;;
30337;SDS011;17143;51.888;5.408;2023-07-13T02:43:39;2.53;;;1.03;;
30337;SDS011;17143;51.888;5.408;2023-07-13T02:58:44;4.07;;;1.33;;
30337;SDS011;17143;51.888;5.408;2023-07-13T03:13:46;4.47;;;1.40;;
30337;SDS011;17143;51.888;5.408;2023-07-13T03:28:49;3.90;;;1.53;;
30337;SDS011;17143;51.888;5.408;2023-07-13T03:43:55;3.27;;;1.70;;
30337;SDS011;17143;51.888;5.408;2023-07-13T03:59:00;5.57;;;1.70;;
30337;SDS011;17143;51.888;5.408;2023-07-13T04:14:02;2.17;;;1.67;;
30337;SDS011;17143;51.888;5.408;2023-07-13T04:29:05;4.23;;;1.67;;
30337;SDS011;17143;51.888;5.408;2023-07-13T04:44:07;2.73;;;1.90;;
30337;SDS011;17143;51.888;5.408;2023-07-13T04:59:09;3.30;;;2.20;;
30337;SDS011;17143;51.888;5.408;2023-07-13T05:14:11;11.87;;;2.77;;
30337;SDS011;17143;51.888;5.408;2023-07-13T05:29:13;10.50;;;3.43;;
30337;SDS011;17143;51.888;5.408;2023-07-13T05:44:15;12.40;;;4.50;;
30337;SDS011;17143;51.888;5.408;2023-07-13T05:59:18;7.93;;;4.80;;
30337;SDS011;17143;51.888;5.408;2023-07-13T06:14:20;10.67;;;4.27;;
30337;SDS011;17143;51.888;5.408;2023-07-13T06:29:22;11.20;;;5.67;;
30337;SDS011;17143;51.888;5.408;2023-07-13T06:44:24;10.30;;;5.23;;
30337;SDS011;17143;51.888;5.408;2023-07-13T06:59:26;13.50;;;5.43;;
30337;SDS011;17143;51.888;5.408;2023-07-13T07:14:28;8.33;;;5.30;;
30337;SDS011;17143;51.888;5.408;2023-07-13T07:29:31;7.07;;;5.50;;
30337;SDS011;17143;51.888;5.408;2023-07-13T07:44:33;12.77;;;5.57;;
30337;SDS011;17143;51.888;5.408;2023-07-13T07:59:35;7.57;;;4.43;;
30337;SDS011;17143;51.888;5.408;2023-07-13T08:14:38;4.10;;;3.30;;
30337;SDS011;17143;51.888;5.408;2023-07-13T08:29:40;3.97;;;2.20;;
30337;SDS011;17143;51.888;5.408;2023-07-13T08:44:44;4.43;;;2.17;;
30337;SDS011;17143;51.888;5.408;2023-07-13T08:59:56;4.83;;;2.20;;
30337;SDS011;17143;51.888;5.408;2023-07-13T09:14:58;5.33;;;2.47;;
30337;SDS011;17143;51.888;5.408;2023-07-13T09:30:04;5.97;;;2.70;;
30337;SDS011;17143;51.888;5.408;2023-07-13T09:45:28;5.47;;;2.57;;
30337;SDS011;17143;51.888;5.408;2023-07-13T10:00:31;3.10;;;1.97;;
30337;SDS011;17143;51.888;5.408;2023-07-13T10:15:33;3.63;;;1.60;;
30337;SDS011;17143;51.888;5.408;2023-07-13T10:30:35;4.00;;;1.80;;
30337;SDS011;17143;51.888;5.408;2023-07-13T10:45:42;1.23;;;0.90;;
30337;SDS011;17143;51.888;5.408;2023-07-13T11:00:51;2.30;;;1.27;;
30337;SDS011;17143;51.888;5.408;2023-07-13T11:15:58;3.83;;;1.53;;
30337;SDS011;17143;51.888;5.408;2023-07-13T11:46:23;2.57;;;0.97;;
30337;SDS011;17143;51.888;5.408;2023-07-13T12:01:28;2.77;;;1.40;;
30337;SDS011;17143;51.888;5.408;2023-07-13T12:16:33;1.63;;;1.10;;
30337;SDS011;17143;51.888;5.408;2023-07-13T12:31:35;1.63;;;1.00;;
30337;SDS011;17143;51.888;5.408;2023-07-13T12:46:47;2.53;;;1.00;;
30337;SDS011;17143;51.888;5.408;2023-07-13T13:01:54;2.13;;;0.90;;
30337;SDS011;17143;51.888;5.408;2023-07-13T13:16:56;1.30;;;1.07;;
30337;SDS011;17143;51.888;5.408;2023-07-13T13:31:58;1.00;;;0.70;;
30337;SDS011;17143;51.888;5.408;2023-07-13T13:47:00;2.63;;;0.87;;
30337;SDS011;17143;51.888;5.408;2023-07-13T14:02:07;1.60;;;1.27;;
30337;SDS011;17143;51.888;5.408;2023-07-13T14:17:24;3.37;;;1.40;;
30337;SDS011;17143;51.888;5.408;2023-07-13T14:32:28;1.00;;;0.80;;
30337;SDS011;17143;51.888;5.408;2023-07-13T14:47:30;1.73;;;1.33;;
30337;SDS011;17143;51.888;5.408;2023-07-13T15:02:33;2.73;;;1.47;;
30337;SDS011;17143;51.888;5.408;2023-07-13T15:17:38;4.27;;;1.63;;
30337;SDS011;17143;51.888;5.408;2023-07-13T15:32:42;1.87;;;0.90;;
30337;SDS011;17143;51.888;5.408;2023-07-13T15:47:45;2.57;;;1.10;;
30337;SDS011;17143;51.888;5.408;2023-07-13T16:02:47;1.07;;;0.90;;
30337;SDS011;17143;51.888;5.408;2023-07-13T16:17:49;1.83;;;1.17;;
30337;SDS011;17143;51.888;5.408;2023-07-13T16:32:52;1.87;;;1.00;;
30337;SDS011;17143;51.888;5.408;2023-07-13T16:47:54;1.10;;;0.70;;
30337;SDS011;17143;51.888;5.408;2023-07-13T17:02:57;0.60;;;0.60;;
30337;SDS011;17143;51.888;5.408;2023-07-13T17:18:00;0.80;;;0.70;;
30337;SDS011;17143;51.888;5.408;2023-07-13T17:33:02;1.20;;;0.67;;
30337;SDS011;17143;51.888;5.408;2023-07-13T17:48:08;1.03;;;0.70;;
30337;SDS011;17143;51.888;5.408;2023-07-13T18:03:12;1.20;;;0.63;;
30337;SDS011;17143;51.888;5.408;2023-07-13T18:18:16;1.53;;;0.73;;
30337;SDS011;17143;51.888;5.408;2023-07-13T18:33:20;2.37;;;1.10;;
30337;SDS011;17143;51.888;5.408;2023-07-13T18:48:25;1.53;;;0.77;;
30337;SDS011;17143;51.888;5.408;2023-07-13T19:03:31;1.13;;;0.70;;
30337;SDS011;17143;51.888;5.408;2023-07-13T19:18:34;1.03;;;0.70;;
30337;SDS011;17143;51.888;5.408;2023-07-13T19:33:36;2.83;;;1.00;;
30337;SDS011;17143;51.888;5.408;2023-07-13T19:48:38;0.90;;;0.70;;
30337;SDS011;17143;51.888;5.408;2023-07-13T20:03:40;0.80;;;0.80;;
30337;SDS011;17143;51.888;5.408;2023-07-13T20:18:42;1.67;;;0.93;;
30337;SDS011;17143;51.888;5.408;2023-07-13T20:33:45;1.60;;;1.30;;
30337;SDS011;17143;51.888;5.408;2023-07-13T20:48:48;3.00;;;1.30;;
30337;SDS011;17143;51.888;5.408;2023-07-13T21:03:51;4.70;;;1.60;;
30337;SDS011;17143;51.888;5.408;2023-07-13T21:18:56;2.80;;;1.60;;
30337;SDS011;17143;51.888;5.408;2023-07-13T21:33:58;2.33;;;1.27;;
30337;SDS011;17143;51.888;5.408;2023-07-13T21:49:01;1.97;;;0.87;;
30337;SDS011;17143;51.888;5.408;2023-07-13T22:04:05;1.73;;;1.10;;
30337;SDS011;17143;51.888;5.408;2023-07-13T22:19:11;2.00;;;1.03;;
30337;SDS011;17143;51.888;5.408;2023-07-13T22:34:16;1.03;;;0.93;;
30337;SDS011;17143;51.888;5.408;2023-07-13T22:49:20;4.03;;;1.10;;
30337;SDS011;17143;51.888;5.408;2023-07-13T23:04:24;0.90;;;0.87;;
30337;SDS011;17143;51.888;5.408;2023-07-13T23:19:28;9.00;;;1.00;;
30337;SDS011;17143;51.888;5.408;2023-07-13T23:34:32;3.90;;;1.20;;
30337;SDS011;17143;51.888;5.408;2023-07-13T23:49:34;1.50;;;1.10;;
